sensor_id;sensor_type;location;lat;lon;timestamp;P1;durP1;ratioP1;P2;durP2;ratioP2
65393;SDS011;52002;49.760;6.512;2023-05-10T00:00:07;1.30;;;1.00;;
65393;SDS011;52002;49.760;6.512;2023-05-10T00:02:34;5.80;;;1.30;;
65393;SDS011;52002;49.760;6.512;2023-05-10T00:04:59;10.50;;;1.30;;
65393;SDS011;52002;49.760;6.512;2023-05-10T00:07:25;1.20;;;1.10;;
65393;SDS011;52002;49.760;6.512;2023-05-10T00:09:50;9.10;;;1.30;;
65393;SDS011;52002;49.760;6.512;2023-05-10T00:12:16;6.20;;;1.00;;
65393;SDS011;52002;49.760;6.512;2023-05-10T00:14:42;6.00;;;1.90;;
65393;SDS011;52002;49.760;6.512;2023-05-10T00:17:07;5.20;;;1.10;;
65393;SDS011;52002;49.760;6.512;2023-05-10T00:19:32;6.80;;;1.20;;
65393;SDS011;52002;49.760;6.512;2023-05-10T00:21:58;3.90;;;1.10;;
65393;SDS011;52002;49.760;6.512;2023-05-10T00:24:23;3.10;;;1.10;;
65393;SDS011;52002;49.760;6.512;2023-05-10T00:26:48;2.10;;;1.00;;
65393;SDS011;52002;49.760;6.512;2023-05-10T00:29:14;8.20;;;1.10;;
65393;SDS011;52002;49.760;6.512;2023-05-10T00:31:39;6.90;;;1.00;;
65393;SDS011;52002;49.760;6.512;2023-05-10T00:34:05;3.40;;;0.90;;
65393;SDS011;52002;49.760;6.512;2023-05-10T00:36:30;2.50;;;1.20;;
65393;SDS011;52002;49.760;6.512;2023-05-10T00:38:56;6.80;;;1.10;;
65393;SDS011;52002;49.760;6.512;2023-05-10T00:41:21;1.60;;;1.20;;
65393;SDS011;52002;49.760;6.512;2023-05-10T00:43:47;12.10;;;1.80;;
65393;SDS011;52002;49.760;6.512;2023-05-10T00:46:12;2.10;;;1.00;;
65393;SDS011;52002;49.760;6.512;2023-05-10T00:48:41;3.90;;;1.30;;
65393;SDS011;52002;49.760;6.512;2023-05-10T00:51:07;1.40;;;1.10;;
65393;SDS011;52002;49.760;6.512;2023-05-10T00:53:32;3.30;;;1.10;;
65393;SDS011;52002;49.760;6.512;2023-05-10T00:55:59;4.80;;;1.50;;
65393;SDS011;52002;49.760;6.512;2023-05-10T00:58:25;3.80;;;1.30;;
65393;SDS011;52002;49.760;6.512;2023-05-10T01:00:53;4.20;;;1.20;;
65393;SDS011;52002;49.760;6.512;2023-05-10T01:03:22;1.30;;;1.20;;
65393;SDS011;52002;49.760;6.512;2023-05-10T01:05:47;16.30;;;1.30;;
65393;SDS011;52002;49.760;6.512;2023-05-10T01:08:13;6.30;;;1.30;;
65393;SDS011;52002;49.760;6.512;2023-05-10T01:10:39;6.40;;;1.40;;
65393;SDS011;52002;49.760;6.512;2023-05-10T01:13:05;4.30;;;1.20;;
65393;SDS011;52002;49.760;6.512;2023-05-10T01:15:30;4.50;;;1.30;;
65393;SDS011;52002;49.760;6.512;2023-05-10T01:17:56;10.80;;;1.50;;
65393;SDS011;52002;49.760;6.512;2023-05-10T01:20:22;1.60;;;1.40;;
65393;SDS011;52002;49.760;6.512;2023-05-10T01:26:14;3.60;;;1.40;;
65393;SDS011;52002;49.760;6.512;2023-05-10T01:37:25;1.90;;;1.80;;
65393;SDS011;52002;49.760;6.512;2023-05-10T01:40:11;2.70;;;1.90;;
65393;SDS011;52002;49.760;6.512;2023-05-10T01:42:51;4.80;;;1.70;;
65393;SDS011;52002;49.760;6.512;2023-05-10T01:45:21;1.90;;;1.70;;
65393;SDS011;52002;49.760;6.512;2023-05-10T01:47:54;3.70;;;1.80;;
65393;SDS011;52002;49.760;6.512;2023-05-10T01:50:29;3.10;;;1.50;;
65393;SDS011;52002;49.760;6.512;2023-05-10T01:52:56;2.40;;;1.60;;
65393;SDS011;52002;49.760;6.512;2023-05-10T01:55:25;7.40;;;1.70;;
65393;SDS011;52002;49.760;6.512;2023-05-10T01:58:01;2.70;;;1.50;;
65393;SDS011;52002;49.760;6.512;2023-05-10T02:00:31;2.00;;;1.70;;
65393;SDS011;52002;49.760;6.512;2023-05-10T02:02:58;3.50;;;1.70;;
65393;SDS011;52002;49.760;6.512;2023-05-10T02:05:26;2.10;;;1.60;;
65393;SDS011;52002;49.760;6.512;2023-05-10T02:07:55;3.70;;;1.50;;
65393;SDS011;52002;49.760;6.512;2023-05-10T02:10:23;3.00;;;1.80;;
65393;SDS011;52002;49.760;6.512;2023-05-10T02:12:48;4.00;;;1.70;;
65393;SDS011;52002;49.760;6.512;2023-05-10T02:15:18;2.30;;;1.30;;
65393;SDS011;52002;49.760;6.512;2023-05-10T02:17:47;2.10;;;1.80;;
65393;SDS011;52002;49.760;6.512;2023-05-10T02:20:13;6.00;;;1.90;;
65393;SDS011;52002;49.760;6.512;2023-05-10T02:22:40;3.30;;;1.70;;
65393;SDS011;52002;49.760;6.512;2023-05-10T02:25:08;4.50;;;2.10;;
65393;SDS011;52002;49.760;6.512;2023-05-10T02:27:34;3.40;;;1.70;;
65393;SDS011;52002;49.760;6.512;2023-05-10T02:30:01;3.10;;;1.60;;
65393;SDS011;52002;49.760;6.512;2023-05-10T02:32:28;9.90;;;2.10;;
65393;SDS011;52002;49.760;6.512;2023-05-10T02:34:55;3.50;;;1.70;;
65393;SDS011;52002;49.760;6.512;2023-05-10T02:37:21;10.20;;;2.20;;
65393;SDS011;52002;49.760;6.512;2023-05-10T02:39:47;10.40;;;2.10;;
65393;SDS011;52002;49.760;6.512;2023-05-10T02:42:18;3.40;;;1.80;;
65393;SDS011;52002;49.760;6.512;2023-05-10T02:44:47;1.60;;;1.50;;
65393;SDS011;52002;49.760;6.512;2023-05-10T02:47:17;8.30;;;2.20;;
65393;SDS011;52002;49.760;6.512;2023-05-10T02:49:43;6.70;;;2.00;;
65393;SDS011;52002;49.760;6.512;2023-05-10T02:52:09;2.10;;;1.80;;
65393;SDS011;52002;49.760;6.512;2023-05-10T02:54:45;8.60;;;2.40;;
65393;SDS011;52002;49.760;6.512;2023-05-10T02:57:20;7.60;;;2.10;;
65393;SDS011;52002;49.760;6.512;2023-05-10T02:59:51;5.10;;;1.50;;
65393;SDS011;52002;49.760;6.512;2023-05-10T03:02:17;3.00;;;1.90;;
65393;SDS011;52002;49.760;6.512;2023-05-10T03:04:42;2.70;;;1.90;;
65393;SDS011;52002;49.760;6.512;2023-05-10T03:07:08;4.50;;;1.70;;
65393;SDS011;52002;49.760;6.512;2023-05-10T03:09:34;3.60;;;2.10;;
65393;SDS011;52002;49.760;6.512;2023-05-10T03:12:01;4.90;;;2.10;;
65393;SDS011;52002;49.760;6.512;2023-05-10T03:20:06;2.60;;;2.00;;
65393;SDS011;52002;49.760;6.512;2023-05-10T03:22:45;4.80;;;2.10;;
65393;SDS011;52002;49.760;6.512;2023-05-10T03:25:15;5.70;;;1.90;;
65393;SDS011;52002;49.760;6.512;2023-05-10T03:27:42;6.80;;;2.10;;
65393;SDS011;52002;49.760;6.512;2023-05-10T03:30:10;9.90;;;2.40;;
65393;SDS011;52002;49.760;6.512;2023-05-10T03:32:37;7.60;;;2.00;;
65393;SDS011;52002;49.760;6.512;2023-05-10T03:35:06;3.00;;;2.20;;
65393;SDS011;52002;49.760;6.512;2023-05-10T03:37:33;5.80;;;2.00;;
65393;SDS011;52002;49.760;6.512;2023-05-10T03:39:59;6.20;;;2.20;;
65393;SDS011;52002;49.760;6.512;2023-05-10T03:42:28;6.30;;;2.10;;
65393;SDS011;52002;49.760;6.512;2023-05-10T03:44:53;8.50;;;2.80;;
65393;SDS011;52002;49.760;6.512;2023-05-10T03:47:18;10.70;;;2.50;;
65393;SDS011;52002;49.760;6.512;2023-05-10T03:49:44;9.50;;;2.40;;
65393;SDS011;52002;49.760;6.512;2023-05-10T03:52:10;5.60;;;2.40;;
65393;SDS011;52002;49.760;6.512;2023-05-10T03:54:36;8.20;;;2.50;;
65393;SDS011;52002;49.760;6.512;2023-05-10T03:57:01;14.90;;;2.40;;
65393;SDS011;52002;49.760;6.512;2023-05-10T03:59:28;7.20;;;2.30;;
65393;SDS011;52002;49.760;6.512;2023-05-10T04:01:53;5.30;;;2.30;;
65393;SDS011;52002;49.760;6.512;2023-05-10T04:04:19;3.60;;;2.20;;
65393;SDS011;52002;49.760;6.512;2023-05-10T04:06:45;8.80;;;2.30;;
65393;SDS011;52002;49.760;6.512;2023-05-10T04:09:11;9.00;;;2.50;;
65393;SDS011;52002;49.760;6.512;2023-05-10T04:11:36;6.30;;;2.40;;
65393;SDS011;52002;49.760;6.512;2023-05-10T04:14:02;5.70;;;2.00;;
65393;SDS011;52002;49.760;6.512;2023-05-10T04:16:27;4.80;;;2.30;;
65393;SDS011;52002;49.760;6.512;2023-05-10T04:18:53;3.10;;;2.00;;
65393;SDS011;52002;49.760;6.512;2023-05-10T04:21:19;4.20;;;2.30;;
65393;SDS011;52002;49.760;6.512;2023-05-10T04:23:45;4.60;;;2.30;;
65393;SDS011;52002;49.760;6.512;2023-05-10T04:26:10;6.00;;;2.40;;
65393;SDS011;52002;49.760;6.512;2023-05-10T04:28:36;5.80;;;2.60;;
65393;SDS011;52002;49.760;6.512;2023-05-10T04:31:04;4.60;;;2.30;;
65393;SDS011;52002;49.760;6.512;2023-05-10T04:33:30;8.00;;;2.30;;
65393;SDS011;52002;49.760;6.512;2023-05-10T04:35:56;14.00;;;2.40;;
65393;SDS011;52002;49.760;6.512;2023-05-10T04:38:22;8.70;;;2.20;;
65393;SDS011;52002;49.760;6.512;2023-05-10T04:40:47;5.40;;;2.20;;
65393;SDS011;52002;49.760;6.512;2023-05-10T04:43:12;5.90;;;2.20;;
65393;SDS011;52002;49.760;6.512;2023-05-10T04:45:38;4.00;;;2.40;;
65393;SDS011;52002;49.760;6.512;2023-05-10T04:48:03;3.70;;;2.40;;
65393;SDS011;52002;49.760;6.512;2023-05-10T04:50:29;7.10;;;2.00;;
65393;SDS011;52002;49.760;6.512;2023-05-10T04:52:55;5.50;;;1.60;;
65393;SDS011;52002;49.760;6.512;2023-05-10T04:55:20;4.80;;;1.60;;
65393;SDS011;52002;49.760;6.512;2023-05-10T04:57:46;3.40;;;1.30;;
65393;SDS011;52002;49.760;6.512;2023-05-10T05:00:11;3.10;;;1.40;;
65393;SDS011;52002;49.760;6.512;2023-05-10T05:02:37;2.80;;;1.20;;
65393;SDS011;52002;49.760;6.512;2023-05-10T05:05:02;2.80;;;1.40;;
65393;SDS011;52002;49.760;6.512;2023-05-10T05:07:28;2.20;;;1.20;;
65393;SDS011;52002;49.760;6.512;2023-05-10T05:09:53;6.80;;;1.30;;
65393;SDS011;52002;49.760;6.512;2023-05-10T05:12:19;5.10;;;1.20;;
65393;SDS011;52002;49.760;6.512;2023-05-10T05:14:44;3.70;;;1.10;;
65393;SDS011;52002;49.760;6.512;2023-05-10T05:17:10;1.10;;;0.60;;
65393;SDS011;52002;49.760;6.512;2023-05-10T05:19:35;0.80;;;0.80;;
65393;SDS011;52002;49.760;6.512;2023-05-10T05:22:01;4.00;;;0.80;;
65393;SDS011;52002;49.760;6.512;2023-05-10T05:24:26;2.10;;;0.90;;
65393;SDS011;52002;49.760;6.512;2023-05-10T05:26:51;3.20;;;0.70;;
65393;SDS011;52002;49.760;6.512;2023-05-10T05:29:17;5.20;;;0.70;;
65393;SDS011;52002;49.760;6.512;2023-05-10T05:31:42;2.70;;;0.60;;
65393;SDS011;52002;49.760;6.512;2023-05-10T05:34:07;1.80;;;0.50;;
65393;SDS011;52002;49.760;6.512;2023-05-10T05:36:35;6.40;;;0.50;;
65393;SDS011;52002;49.760;6.512;2023-05-10T05:39:03;1.00;;;0.50;;
65393;SDS011;52002;49.760;6.512;2023-05-10T05:41:28;6.00;;;0.60;;
65393;SDS011;52002;49.760;6.512;2023-05-10T05:43:54;1.80;;;0.50;;
65393;SDS011;52002;49.760;6.512;2023-05-10T05:46:19;2.50;;;0.60;;
65393;SDS011;52002;49.760;6.512;2023-05-10T05:48:45;1.30;;;0.30;;
65393;SDS011;52002;49.760;6.512;2023-05-10T05:51:10;2.10;;;0.50;;
65393;SDS011;52002;49.760;6.512;2023-05-10T05:53:35;1.10;;;0.30;;
65393;SDS011;52002;49.760;6.512;2023-05-10T05:56:01;4.30;;;0.80;;
65393;SDS011;52002;49.760;6.512;2023-05-10T05:58:27;5.30;;;0.90;;
65393;SDS011;52002;49.760;6.512;2023-05-10T06:00:53;4.20;;;0.50;;
65393;SDS011;52002;49.760;6.512;2023-05-10T06:03:18;3.80;;;0.50;;
65393;SDS011;52002;49.760;6.512;2023-05-10T06:05:44;3.20;;;0.60;;
65393;SDS011;52002;49.760;6.512;2023-05-10T06:08:09;7.80;;;0.70;;
65393;SDS011;52002;49.760;6.512;2023-05-10T06:10:35;2.30;;;0.30;;
65393;SDS011;52002;49.760;6.512;2023-05-10T06:13:01;4.40;;;0.40;;
65393;SDS011;52002;49.760;6.512;2023-05-10T06:15:26;1.90;;;0.50;;
65393;SDS011;52002;49.760;6.512;2023-05-10T06:17:52;1.20;;;0.30;;
65393;SDS011;52002;49.760;6.512;2023-05-10T06:20:17;1.20;;;0.50;;
65393;SDS011;52002;49.760;6.512;2023-05-10T06:22:43;1.40;;;0.50;;
65393;SDS011;52002;49.760;6.512;2023-05-10T06:25:09;7.50;;;0.40;;
65393;SDS011;52002;49.760;6.512;2023-05-10T06:27:35;2.10;;;0.40;;
65393;SDS011;52002;49.760;6.512;2023-05-10T06:30:00;2.30;;;0.40;;
65393;SDS011;52002;49.760;6.512;2023-05-10T06:32:25;1.50;;;0.70;;
65393;SDS011;52002;49.760;6.512;2023-05-10T06:34:51;4.60;;;0.50;;
65393;SDS011;52002;49.760;6.512;2023-05-10T06:37:17;3.30;;;0.30;;
65393;SDS011;52002;49.760;6.512;2023-05-10T06:39:42;1.70;;;0.40;;
65393;SDS011;52002;49.760;6.512;2023-05-10T06:42:08;6.60;;;0.40;;
65393;SDS011;52002;49.760;6.512;2023-05-10T06:44:33;0.90;;;0.50;;
65393;SDS011;52002;49.760;6.512;2023-05-10T06:46:58;0.70;;;0.30;;
65393;SDS011;52002;49.760;6.512;2023-05-10T06:49:24;3.50;;;0.30;;
65393;SDS011;52002;49.760;6.512;2023-05-10T06:51:49;2.30;;;0.70;;
65393;SDS011;52002;49.760;6.512;2023-05-10T06:54:15;3.90;;;0.40;;
65393;SDS011;52002;49.760;6.512;2023-05-10T06:56:40;1.80;;;0.40;;
65393;SDS011;52002;49.760;6.512;2023-05-10T06:59:06;4.40;;;0.60;;
65393;SDS011;52002;49.760;6.512;2023-05-10T07:01:31;4.70;;;0.60;;
65393;SDS011;52002;49.760;6.512;2023-05-10T07:03:57;2.20;;;0.40;;
65393;SDS011;52002;49.760;6.512;2023-05-10T07:06:22;5.10;;;0.40;;
65393;SDS011;52002;49.760;6.512;2023-05-10T07:08:47;1.60;;;0.40;;
65393;SDS011;52002;49.760;6.512;2023-05-10T07:11:13;1.60;;;0.50;;
65393;SDS011;52002;49.760;6.512;2023-05-10T07:13:38;2.80;;;0.40;;
65393;SDS011;52002;49.760;6.512;2023-05-10T07:16:06;5.50;;;0.40;;
65393;SDS011;52002;49.760;6.512;2023-05-10T07:18:33;8.10;;;0.50;;
65393;SDS011;52002;49.760;6.512;2023-05-10T07:20:58;1.30;;;0.40;;
65393;SDS011;52002;49.760;6.512;2023-05-10T07:23:24;1.20;;;0.30;;
65393;SDS011;52002;49.760;6.512;2023-05-10T07:25:50;4.30;;;0.60;;
65393;SDS011;52002;49.760;6.512;2023-05-10T07:28:17;0.10;;;0.10;;
65393;SDS011;52002;49.760;6.512;2023-05-10T07:30:43;2.80;;;0.30;;
65393;SDS011;52002;49.760;6.512;2023-05-10T07:33:10;3.50;;;0.30;;
65393;SDS011;52002;49.760;6.512;2023-05-10T07:35:36;0.30;;;0.20;;
65393;SDS011;52002;49.760;6.512;2023-05-10T07:38:02;1.50;;;0.50;;
65393;SDS011;52002;49.760;6.512;2023-05-10T07:40:27;1.00;;;0.40;;
65393;SDS011;52002;49.760;6.512;2023-05-10T07:42:53;1.60;;;0.30;;
65393;SDS011;52002;49.760;6.512;2023-05-10T07:45:19;0.70;;;0.50;;
65393;SDS011;52002;49.760;6.512;2023-05-10T07:47:45;2.30;;;0.30;;
65393;SDS011;52002;49.760;6.512;2023-05-10T07:50:10;10.40;;;0.60;;
65393;SDS011;52002;49.760;6.512;2023-05-10T07:52:35;1.70;;;0.50;;
65393;SDS011;52002;49.760;6.512;2023-05-10T07:55:01;0.40;;;0.30;;
65393;SDS011;52002;49.760;6.512;2023-05-10T07:57:26;1.80;;;0.40;;
65393;SDS011;52002;49.760;6.512;2023-05-10T07:59:52;1.50;;;0.30;;
65393;SDS011;52002;49.760;6.512;2023-05-10T08:02:17;2.20;;;0.50;;
65393;SDS011;52002;49.760;6.512;2023-05-10T08:04:42;4.20;;;0.40;;
65393;SDS011;52002;49.760;6.512;2023-05-10T08:07:08;1.00;;;0.20;;
65393;SDS011;52002;49.760;6.512;2023-05-10T08:09:33;2.60;;;0.50;;
65393;SDS011;52002;49.760;6.512;2023-05-10T08:11:58;3.60;;;0.60;;
65393;SDS011;52002;49.760;6.512;2023-05-10T08:14:25;1.10;;;0.30;;
65393;SDS011;52002;49.760;6.512;2023-05-10T08:16:52;2.10;;;0.40;;
65393;SDS011;52002;49.760;6.512;2023-05-10T08:19:17;3.00;;;0.50;;
65393;SDS011;52002;49.760;6.512;2023-05-10T08:21:45;2.90;;;0.50;;
65393;SDS011;52002;49.760;6.512;2023-05-10T08:24:10;5.90;;;0.40;;
65393;SDS011;52002;49.760;6.512;2023-05-10T08:26:36;2.40;;;0.50;;
65393;SDS011;52002;49.760;6.512;2023-05-10T08:29:01;5.50;;;0.60;;
65393;SDS011;52002;49.760;6.512;2023-05-10T08:31:27;6.20;;;0.70;;
65393;SDS011;52002;49.760;6.512;2023-05-10T08:33:52;6.30;;;0.80;;
65393;SDS011;52002;49.760;6.512;2023-05-10T08:36:18;9.20;;;1.10;;
65393;SDS011;52002;49.760;6.512;2023-05-10T08:38:47;5.60;;;1.10;;
65393;SDS011;52002;49.760;6.512;2023-05-10T08:41:14;1.70;;;0.60;;
65393;SDS011;52002;49.760;6.512;2023-05-10T08:43:41;0.90;;;0.40;;
65393;SDS011;52002;49.760;6.512;2023-05-10T08:46:11;5.40;;;0.50;;
65393;SDS011;52002;49.760;6.512;2023-05-10T08:48:45;1.20;;;0.40;;
65393;SDS011;52002;49.760;6.512;2023-05-10T08:51:18;3.80;;;0.60;;
65393;SDS011;52002;49.760;6.512;2023-05-10T08:53:46;4.70;;;0.60;;
65393;SDS011;52002;49.760;6.512;2023-05-10T08:56:12;12.30;;;1.70;;
65393;SDS011;52002;49.760;6.512;2023-05-10T08:58:38;2.20;;;0.50;;
65393;SDS011;52002;49.760;6.512;2023-05-10T09:01:04;2.00;;;0.80;;
65393;SDS011;52002;49.760;6.512;2023-05-10T09:03:30;1.30;;;0.50;;
65393;SDS011;52002;49.760;6.512;2023-05-10T09:05:57;1.60;;;0.40;;
65393;SDS011;52002;49.760;6.512;2023-05-10T09:08:23;2.40;;;0.30;;
65393;SDS011;52002;49.760;6.512;2023-05-10T09:10:51;1.50;;;0.50;;
65393;SDS011;52002;49.760;6.512;2023-05-10T09:13:17;0.60;;;0.40;;
65393;SDS011;52002;49.760;6.512;2023-05-10T09:15:44;1.80;;;0.60;;
65393;SDS011;52002;49.760;6.512;2023-05-10T09:18:10;2.10;;;0.40;;
65393;SDS011;52002;49.760;6.512;2023-05-10T09:20:36;0.70;;;0.40;;
65393;SDS011;52002;49.760;6.512;2023-05-10T09:23:02;4.40;;;0.60;;
65393;SDS011;52002;49.760;6.512;2023-05-10T09:25:27;1.60;;;0.30;;
65393;SDS011;52002;49.760;6.512;2023-05-10T09:27:53;4.00;;;0.70;;
65393;SDS011;52002;49.760;6.512;2023-05-10T09:30:24;1.00;;;0.70;;
65393;SDS011;52002;49.760;6.512;2023-05-10T09:32:52;2.40;;;0.70;;
65393;SDS011;52002;49.760;6.512;2023-05-10T09:35:19;2.40;;;0.80;;
65393;SDS011;52002;49.760;6.512;2023-05-10T09:37:47;1.30;;;0.80;;
65393;SDS011;52002;49.760;6.512;2023-05-10T09:40:18;3.80;;;0.90;;
65393;SDS011;52002;49.760;6.512;2023-05-10T09:45:31;2.00;;;0.60;;
65393;SDS011;52002;49.760;6.512;2023-05-10T09:47:59;2.10;;;0.80;;
65393;SDS011;52002;49.760;6.512;2023-05-10T09:50:26;7.30;;;0.80;;
65393;SDS011;52002;49.760;6.512;2023-05-10T09:52:56;6.30;;;1.00;;
65393;SDS011;52002;49.760;6.512;2023-05-10T09:55:24;2.30;;;0.70;;
65393;SDS011;52002;49.760;6.512;2023-05-10T09:58:02;3.80;;;1.20;;
65393;SDS011;52002;49.760;6.512;2023-05-10T10:00:34;8.40;;;1.20;;
65393;SDS011;52002;49.760;6.512;2023-05-10T10:03:01;4.00;;;1.20;;
65393;SDS011;52002;49.760;6.512;2023-05-10T10:05:33;4.30;;;0.90;;
65393;SDS011;52002;49.760;6.512;2023-05-10T10:08:02;6.80;;;1.10;;
65393;SDS011;52002;49.760;6.512;2023-05-10T10:10:29;6.50;;;1.10;;
65393;SDS011;52002;49.760;6.512;2023-05-10T10:12:56;7.80;;;1.10;;
65393;SDS011;52002;49.760;6.512;2023-05-10T10:15:21;2.60;;;1.00;;
65393;SDS011;52002;49.760;6.512;2023-05-10T10:17:48;4.00;;;1.40;;
65393;SDS011;52002;49.760;6.512;2023-05-10T10:20:14;12.80;;;1.50;;
65393;SDS011;52002;49.760;6.512;2023-05-10T10:22:40;6.30;;;1.30;;
65393;SDS011;52002;49.760;6.512;2023-05-10T10:25:08;6.90;;;1.70;;
65393;SDS011;52002;49.760;6.512;2023-05-10T10:33:01;4.10;;;1.00;;
65393;SDS011;52002;49.760;6.512;2023-05-10T10:35:38;5.90;;;1.00;;
65393;SDS011;52002;49.760;6.512;2023-05-10T10:38:05;4.60;;;1.10;;
65393;SDS011;52002;49.760;6.512;2023-05-10T10:40:33;6.50;;;1.30;;
65393;SDS011;52002;49.760;6.512;2023-05-10T10:43:20;2.80;;;1.40;;
65393;SDS011;52002;49.760;6.512;2023-05-10T10:46:10;5.30;;;1.20;;
65393;SDS011;52002;49.760;6.512;2023-05-10T10:48:40;5.10;;;1.20;;
65393;SDS011;52002;49.760;6.512;2023-05-10T10:51:12;4.20;;;1.20;;
65393;SDS011;52002;49.760;6.512;2023-05-10T10:53:39;4.80;;;1.50;;
65393;SDS011;52002;49.760;6.512;2023-05-10T10:58:35;3.80;;;1.00;;
65393;SDS011;52002;49.760;6.512;2023-05-10T11:01:15;4.00;;;1.00;;
65393;SDS011;52002;49.760;6.512;2023-05-10T11:06:33;4.90;;;1.50;;
65393;SDS011;52002;49.760;6.512;2023-05-10T11:09:08;5.80;;;1.20;;
65393;SDS011;52002;49.760;6.512;2023-05-10T11:11:35;5.60;;;1.10;;
65393;SDS011;52002;49.760;6.512;2023-05-10T11:14:04;5.20;;;1.00;;
65393;SDS011;52002;49.760;6.512;2023-05-10T11:16:42;3.30;;;1.10;;
65393;SDS011;52002;49.760;6.512;2023-05-10T11:19:10;4.30;;;0.90;;
65393;SDS011;52002;49.760;6.512;2023-05-10T11:21:46;6.10;;;1.20;;
65393;SDS011;52002;49.760;6.512;2023-05-10T11:24:13;6.80;;;1.20;;
65393;SDS011;52002;49.760;6.512;2023-05-10T11:26:40;1.80;;;0.90;;
65393;SDS011;52002;49.760;6.512;2023-05-10T11:29:05;2.50;;;0.80;;
65393;SDS011;52002;49.760;6.512;2023-05-10T11:31:31;5.50;;;1.00;;
65393;SDS011;52002;49.760;6.512;2023-05-10T11:33:57;3.10;;;0.90;;
65393;SDS011;52002;49.760;6.512;2023-05-10T11:36:26;5.20;;;0.90;;
65393;SDS011;52002;49.760;6.512;2023-05-10T11:38:54;4.50;;;1.00;;
65393;SDS011;52002;49.760;6.512;2023-05-10T11:41:21;1.80;;;0.80;;
65393;SDS011;52002;49.760;6.512;2023-05-10T11:43:51;4.90;;;1.00;;
65393;SDS011;52002;49.760;6.512;2023-05-10T11:46:18;5.50;;;0.80;;
65393;SDS011;52002;49.760;6.512;2023-05-10T11:48:46;7.60;;;1.10;;
65393;SDS011;52002;49.760;6.512;2023-05-10T11:51:15;4.40;;;0.80;;
65393;SDS011;52002;49.760;6.512;2023-05-10T11:53:40;2.40;;;1.00;;
65393;SDS011;52002;49.760;6.512;2023-05-10T11:56:06;3.90;;;1.00;;
65393;SDS011;52002;49.760;6.512;2023-05-10T11:58:33;5.00;;;0.90;;
65393;SDS011;52002;49.760;6.512;2023-05-10T12:01:00;3.60;;;1.10;;
65393;SDS011;52002;49.760;6.512;2023-05-10T12:03:27;4.10;;;1.00;;
65393;SDS011;52002;49.760;6.512;2023-05-10T12:05:57;5.50;;;1.00;;
65393;SDS011;52002;49.760;6.512;2023-05-10T12:08:24;2.60;;;0.70;;
65393;SDS011;52002;49.760;6.512;2023-05-10T12:10:51;3.30;;;0.90;;
65393;SDS011;52002;49.760;6.512;2023-05-10T12:13:19;1.90;;;0.80;;
65393;SDS011;52002;49.760;6.512;2023-05-10T12:15:45;6.10;;;1.00;;
65393;SDS011;52002;49.760;6.512;2023-05-10T12:18:11;4.80;;;0.80;;
65393;SDS011;52002;49.760;6.512;2023-05-10T12:20:39;6.10;;;1.30;;
65393;SDS011;52002;49.760;6.512;2023-05-10T12:23:07;2.50;;;0.80;;
65393;SDS011;52002;49.760;6.512;2023-05-10T12:25:34;3.50;;;1.00;;
65393;SDS011;52002;49.760;6.512;2023-05-10T12:28:05;7.30;;;1.20;;
65393;SDS011;52002;49.760;6.512;2023-05-10T12:30:33;1.90;;;0.90;;
65393;SDS011;52002;49.760;6.512;2023-05-10T12:33:01;2.80;;;1.00;;
65393;SDS011;52002;49.760;6.512;2023-05-10T12:35:31;6.20;;;1.20;;
65393;SDS011;52002;49.760;6.512;2023-05-10T12:37:57;5.00;;;1.40;;
65393;SDS011;52002;49.760;6.512;2023-05-10T12:40:23;6.50;;;1.20;;
65393;SDS011;52002;49.760;6.512;2023-05-10T12:42:49;4.10;;;1.10;;
65393;SDS011;52002;49.760;6.512;2023-05-10T12:45:14;3.30;;;1.10;;
65393;SDS011;52002;49.760;6.512;2023-05-10T12:47:40;5.40;;;1.10;;
65393;SDS011;52002;49.760;6.512;2023-05-10T12:50:05;4.10;;;1.10;;
65393;SDS011;52002;49.760;6.512;2023-05-10T12:52:31;3.10;;;0.80;;
65393;SDS011;52002;49.760;6.512;2023-05-10T12:54:57;3.90;;;0.90;;
65393;SDS011;52002;49.760;6.512;2023-05-10T12:57:23;6.70;;;1.70;;
65393;SDS011;52002;49.760;6.512;2023-05-10T12:59:49;2.40;;;0.90;;
65393;SDS011;52002;49.760;6.512;2023-05-10T13:02:14;2.60;;;0.90;;
65393;SDS011;52002;49.760;6.512;2023-05-10T13:04:40;1.70;;;0.60;;
65393;SDS011;52002;49.760;6.512;2023-05-10T13:07:06;6.60;;;1.10;;
65393;SDS011;52002;49.760;6.512;2023-05-10T13:09:32;9.90;;;1.10;;
65393;SDS011;52002;49.760;6.512;2023-05-10T13:11:57;10.70;;;1.50;;
65393;SDS011;52002;49.760;6.512;2023-05-10T13:14:23;6.30;;;1.20;;
65393;SDS011;52002;49.760;6.512;2023-05-10T13:16:50;2.00;;;0.90;;
65393;SDS011;52002;49.760;6.512;2023-05-10T13:19:15;2.30;;;0.80;;
65393;SDS011;52002;49.760;6.512;2023-05-10T13:21:42;2.70;;;1.10;;
65393;SDS011;52002;49.760;6.512;2023-05-10T13:24:07;5.70;;;1.60;;
65393;SDS011;52002;49.760;6.512;2023-05-10T13:26:33;2.20;;;1.00;;
65393;SDS011;52002;49.760;6.512;2023-05-10T13:28:59;4.40;;;1.10;;
65393;SDS011;52002;49.760;6.512;2023-05-10T13:31:24;5.10;;;0.90;;
65393;SDS011;52002;49.760;6.512;2023-05-10T13:33:50;1.10;;;0.60;;
65393;SDS011;52002;49.760;6.512;2023-05-10T13:36:15;1.90;;;0.60;;
65393;SDS011;52002;49.760;6.512;2023-05-10T13:38:41;3.30;;;0.60;;
65393;SDS011;52002;49.760;6.512;2023-05-10T13:41:06;8.30;;;0.80;;
65393;SDS011;52002;49.760;6.512;2023-05-10T13:43:31;4.00;;;0.60;;
65393;SDS011;52002;49.760;6.512;2023-05-10T13:45:57;2.30;;;0.90;;
65393;SDS011;52002;49.760;6.512;2023-05-10T13:48:22;3.70;;;0.90;;
65393;SDS011;52002;49.760;6.512;2023-05-10T13:50:47;3.00;;;0.80;;
65393;SDS011;52002;49.760;6.512;2023-05-10T13:53:13;2.30;;;0.70;;
65393;SDS011;52002;49.760;6.512;2023-05-10T13:55:39;2.20;;;0.80;;
65393;SDS011;52002;49.760;6.512;2023-05-10T13:58:04;4.30;;;1.10;;
65393;SDS011;52002;49.760;6.512;2023-05-10T14:00:30;4.70;;;1.10;;
65393;SDS011;52002;49.760;6.512;2023-05-10T14:02:55;2.40;;;0.80;;
65393;SDS011;52002;49.760;6.512;2023-05-10T14:05:21;3.90;;;0.80;;
65393;SDS011;52002;49.760;6.512;2023-05-10T14:07:46;2.10;;;1.10;;
65393;SDS011;52002;49.760;6.512;2023-05-10T14:10:12;5.00;;;1.10;;
65393;SDS011;52002;49.760;6.512;2023-05-10T14:12:37;1.70;;;0.60;;
65393;SDS011;52002;49.760;6.512;2023-05-10T14:15:03;4.20;;;1.30;;
65393;SDS011;52002;49.760;6.512;2023-05-10T14:17:31;3.70;;;0.80;;
65393;SDS011;52002;49.760;6.512;2023-05-10T14:19:57;1.00;;;0.60;;
65393;SDS011;52002;49.760;6.512;2023-05-10T14:22:22;6.50;;;0.70;;
65393;SDS011;52002;49.760;6.512;2023-05-10T14:24:48;1.80;;;0.50;;
65393;SDS011;52002;49.760;6.512;2023-05-10T14:27:14;4.20;;;0.80;;
65393;SDS011;52002;49.760;6.512;2023-05-10T14:29:40;1.90;;;0.50;;
65393;SDS011;52002;49.760;6.512;2023-05-10T14:32:05;3.10;;;0.60;;
65393;SDS011;52002;49.760;6.512;2023-05-10T14:34:30;1.80;;;0.60;;
65393;SDS011;52002;49.760;6.512;2023-05-10T14:36:56;4.30;;;0.50;;
65393;SDS011;52002;49.760;6.512;2023-05-10T14:39:21;0.90;;;0.40;;
65393;SDS011;52002;49.760;6.512;2023-05-10T14:41:47;1.80;;;0.40;;
65393;SDS011;52002;49.760;6.512;2023-05-10T14:44:13;0.60;;;0.40;;
65393;SDS011;52002;49.760;6.512;2023-05-10T14:46:40;2.60;;;1.00;;
65393;SDS011;52002;49.760;6.512;2023-05-10T14:49:07;1.90;;;0.40;;
65393;SDS011;52002;49.760;6.512;2023-05-10T14:51:32;4.30;;;0.60;;
65393;SDS011;52002;49.760;6.512;2023-05-10T14:53:58;1.40;;;0.60;;
65393;SDS011;52002;49.760;6.512;2023-05-10T14:56:23;3.60;;;0.60;;
65393;SDS011;52002;49.760;6.512;2023-05-10T14:58:50;6.30;;;0.50;;
65393;SDS011;52002;49.760;6.512;2023-05-10T15:01:16;5.90;;;0.50;;
65393;SDS011;52002;49.760;6.512;2023-05-10T15:03:41;3.80;;;0.70;;
65393;SDS011;52002;49.760;6.512;2023-05-10T15:06:07;4.80;;;0.50;;
65393;SDS011;52002;49.760;6.512;2023-05-10T15:08:33;1.80;;;0.80;;
65393;SDS011;52002;49.760;6.512;2023-05-10T15:10:58;2.20;;;0.50;;
65393;SDS011;52002;49.760;6.512;2023-05-10T15:13:24;3.40;;;0.60;;
65393;SDS011;52002;49.760;6.512;2023-05-10T15:15:49;2.60;;;0.60;;